Airfield :
LOGIN :

Register | Disclaimer

   EN    FR    IT 

 










Legend :    VFR   Marginal VFR   IFR   Intensive IFR   Very Intensive IFR
Visi :
Ceiling :
>= 8 km
>= 3000ft
5 to 8 km
1000 to 3000 ft
1500m to 5 km
500 to 1000 ft
800 to 1500m
200 to 500 ft
< 800m
< 200 ft
Symbols :   Thunderstorms  Fog  Heavy snow  Heavy precipitations  Wind > 20 kt
SIGMETs :     Misc.  Thunderstorms  Icing  Turbulence  Mountain Waves  Volcanic Ashes






- Airport Elevation : 50 ft
- IATA code : KOI


EGPA - Kirkwall

CURRENT METAR :
  • 250350Z AUTO 31005KT 9999 FEW044/// 06/04 Q1005

EXPIRED METARs :
  • 250320Z AUTO 33001KT 9999 SCT033/// BKN042/// 07/05 Q1005
  • 250250Z AUTO 33003KT 9999 NCD 07/06 Q1005
  • 250220Z AUTO 31005KT 9999 OVC034/// 08/06 Q1005
  • 250150Z AUTO 35004KT 320V020 9999 FEW022/// OVC031/// 09/07 Q1005
  • 250120Z AUTO VRB01KT 9999 FEW019/// SCT028/// BKN033/// 08/07 Q1004

TAF TAF EGPA
Valid from the 25 at 03:00 until the 25 at 12:00 UTC


250156Z 2503/2512 32006KT 9999 FEW016 SCT030
TEMPO 2503/2512 6000 SHRA
PROB30
TEMPO 2503/2509 2000 +SHRA BKN012



MET'MAP, your aeronautical weather chart ! - Copyright ORBIFLY December 2007 - Disclaimer

ORBIFLY MET'MAP TEAM :

Programming & Development : Alexandra Zaïnal
Concept & original design : Baudouin d'Aumeries
Assistance for programming : Marc-Olivier Méhu
Technical & hardware support : Manuel Goepfert

Contact : metmap@orbifly.com




SOURCES & CREDITS :

   NOAA